createdAt,value
2018-09-17T00:01:40.390Z,17.50
2018-09-17T00:04:08.979Z,17.51
2018-09-17T00:06:37.793Z,17.44
2018-09-17T00:09:09.126Z,17.42
2018-09-17T00:11:38.182Z,17.37
2018-09-17T00:14:06.748Z,17.40
2018-09-17T00:16:35.919Z,17.38
2018-09-17T00:19:04.600Z,17.37
2018-09-17T00:21:33.696Z,17.39
2018-09-17T00:24:02.291Z,17.41
2018-09-17T00:26:30.996Z,17.44
2018-09-17T00:28:59.556Z,17.45
2018-09-17T00:31:28.090Z,17.38
2018-09-17T00:33:56.686Z,17.38
2018-09-17T00:36:25.240Z,17.38
2018-09-17T00:38:53.795Z,17.33
2018-09-17T00:41:22.449Z,17.30
2018-09-17T00:43:50.991Z,17.25
2018-09-17T00:46:19.544Z,17.20
2018-09-17T00:48:48.520Z,17.18
2018-09-17T00:51:17.851Z,17.12
2018-09-17T00:53:46.403Z,17.12
2018-09-17T00:56:14.989Z,17.06
2018-09-17T00:58:43.550Z,16.99
2018-09-17T01:01:12.095Z,16.98
2018-09-17T01:03:40.679Z,16.93
2018-09-17T01:06:09.264Z,16.92
2018-09-17T01:08:37.820Z,16.89
2018-09-17T01:11:06.411Z,16.81
2018-09-17T01:13:34.967Z,16.84
2018-09-17T01:16:03.532Z,16.77
2018-09-17T01:18:32.215Z,16.74
2018-09-17T01:21:00.772Z,16.71
2018-09-17T01:23:29.334Z,16.70
2018-09-17T01:25:57.935Z,16.71
2018-09-17T01:28:26.761Z,16.71
2018-09-17T01:30:55.316Z,16.68
2018-09-17T01:33:24.143Z,16.65
2018-09-17T01:35:52.687Z,16.62
2018-09-17T01:38:21.291Z,16.60
2018-09-17T01:40:49.915Z,16.55
2018-09-17T01:43:19.159Z,16.54
2018-09-17T01:45:47.714Z,16.48
2018-09-17T01:48:16.327Z,16.41
2018-09-17T01:50:44.880Z,16.39
2018-09-17T01:53:13.435Z,16.38
2018-09-17T01:55:42.117Z,16.35
2018-09-17T01:58:10.667Z,16.34
2018-09-17T02:00:39.239Z,16.33
2018-09-17T02:03:08.191Z,16.32
2018-09-17T02:05:36.822Z,16.30
2018-09-17T02:08:06.268Z,16.30
2018-09-17T02:10:34.787Z,16.31
2018-09-17T02:13:03.351Z,16.31
2018-09-17T02:15:31.901Z,16.29
2018-09-17T02:18:00.563Z,16.30
2018-09-17T02:20:29.122Z,16.29
2018-09-17T02:22:57.679Z,16.28
2018-09-17T02:25:26.259Z,16.27
2018-09-17T02:27:54.852Z,16.24
2018-09-17T02:30:23.399Z,16.23
2018-09-17T02:32:52.076Z,16.21
2018-09-17T02:35:20.640Z,16.25
2018-09-17T02:37:49.191Z,16.30
2018-09-17T02:40:18.660Z,16.31
2018-09-17T02:42:49.339Z,16.33
2018-09-17T02:45:18.568Z,16.36
2018-09-17T02:47:47.170Z,16.29
2018-09-17T02:50:15.734Z,16.28
2018-09-17T02:52:44.348Z,16.33
2018-09-17T02:55:12.907Z,16.32
2018-09-17T02:57:41.469Z,16.34
2018-09-17T03:00:10.995Z,16.30
2018-09-17T03:02:39.915Z,16.29
2018-09-17T03:05:09.219Z,16.30
2018-09-17T03:07:37.812Z,16.32
2018-09-17T03:10:06.495Z,16.28
2018-09-17T03:12:35.048Z,16.23
2018-09-17T03:15:14.788Z,16.20
2018-09-17T03:17:43.364Z,16.17
2018-09-17T03:20:11.916Z,16.14
2018-09-17T03:22:40.587Z,16.09
2018-09-17T03:25:09.135Z,16.05
2018-09-17T03:27:37.693Z,16.03
2018-09-17T03:30:06.461Z,16.01
2018-09-17T03:32:35.024Z,16.01
2018-09-17T03:35:03.579Z,16.00
2018-09-17T03:37:32.243Z,15.98
2018-09-17T03:40:01.434Z,15.98
2018-09-17T03:42:30.407Z,15.91
2018-09-17T03:44:59.640Z,15.89
2018-09-17T03:47:28.218Z,15.91
2018-09-17T03:49:56.801Z,15.91
2018-09-17T03:52:25.504Z,15.93
2018-09-17T03:54:54.051Z,15.91
2018-09-17T03:57:22.595Z,15.95
2018-09-17T03:59:51.175Z,15.94
2018-09-17T04:02:19.722Z,15.94
2018-09-17T04:04:48.284Z,15.96
2018-09-17T04:07:16.898Z,15.97
2018-09-17T04:09:45.964Z,16.00
2018-09-17T04:12:15.643Z,16.05
2018-09-17T04:14:44.573Z,16.06
2018-09-17T04:17:13.167Z,16.06
2018-09-17T04:19:41.711Z,16.09
2018-09-17T04:22:10.948Z,16.11
2018-09-17T04:24:39.505Z,16.09
2018-09-17T04:27:08.059Z,16.07
2018-09-17T04:29:36.659Z,16.06
2018-09-17T04:32:05.215Z,16.05
2018-09-17T04:34:33.773Z,16.02
2018-09-17T04:37:02.399Z,16.02
2018-09-17T04:39:31.013Z,15.99
2018-09-17T04:41:59.554Z,15.95
2018-09-17T04:44:28.219Z,15.94
2018-09-17T04:46:56.807Z,15.95
2018-09-17T04:49:25.359Z,15.93
2018-09-17T04:51:54.048Z,15.91
2018-09-17T04:54:22.599Z,15.89
2018-09-17T04:56:51.173Z,15.85
2018-09-17T04:59:19.847Z,15.83
2018-09-17T05:01:48.408Z,15.75
2018-09-17T05:04:16.963Z,15.75
2018-09-17T05:06:46.260Z,15.72
2018-09-17T05:09:14.815Z,15.72
2018-09-17T05:11:43.363Z,15.70
2018-09-17T05:14:11.979Z,15.69
2018-09-17T05:16:40.531Z,15.69
2018-09-17T05:19:09.090Z,15.68
2018-09-17T05:21:37.751Z,15.62
2018-09-17T05:24:06.455Z,15.58
2018-09-17T05:26:35.007Z,15.51
2018-09-17T05:29:03.609Z,15.51
2018-09-17T05:31:32.626Z,15.53
2018-09-17T05:34:01.199Z,15.54
2018-09-17T05:36:29.852Z,15.59
2018-09-17T05:38:58.403Z,15.63
2018-09-17T05:41:26.956Z,15.68
2018-09-17T05:43:55.713Z,15.75
2018-09-17T05:46:24.260Z,15.93
2018-09-17T05:48:52.817Z,16.13
2018-09-17T05:51:21.471Z,16.31
2018-09-17T05:53:50.031Z,16.45
2018-09-17T05:56:18.601Z,16.57
2018-09-17T05:58:47.320Z,16.69
2018-09-17T06:01:15.887Z,16.81
2018-09-17T06:03:44.447Z,17.02
2018-09-17T06:06:13.339Z,17.21
2018-09-17T06:08:41.896Z,17.37
2018-09-17T06:11:11.095Z,17.51
2018-09-17T06:13:40.055Z,17.67
2018-09-17T06:16:08.692Z,17.77
2018-09-17T06:18:37.258Z,17.95
2018-09-17T06:21:06.384Z,18.03
2018-09-17T06:23:34.976Z,18.25
2018-09-17T06:26:03.535Z,18.44
2018-09-17T06:28:32.894Z,18.71
2018-09-17T06:31:01.428Z,18.88
2018-09-17T06:33:29.998Z,19.00
2018-09-17T06:35:58.670Z,18.99
2018-09-17T06:38:27.233Z,19.08
2018-09-17T06:40:55.791Z,19.20
2018-09-17T06:43:24.401Z,19.51
2018-09-17T06:45:52.964Z,19.80
2018-09-17T06:48:21.522Z,20.08
2018-09-17T06:50:50.487Z,20.35
2018-09-17T06:53:19.049Z,20.66
2018-09-17T06:55:47.595Z,20.87
2018-09-17T06:58:16.543Z,21.12
2018-09-17T07:00:45.100Z,21.28
2018-09-17T07:03:13.660Z,21.55
2018-09-17T07:05:42.315Z,21.78
2018-09-17T07:08:10.879Z,21.92
2018-09-17T07:10:39.420Z,22.08
2018-09-17T07:13:08.031Z,21.89
2018-09-17T07:15:36.587Z,22.11
2018-09-17T07:18:05.188Z,21.96
2018-09-17T07:20:33.752Z,22.10
2018-09-17T07:23:02.301Z,22.49
2018-09-17T07:25:30.838Z,22.78
2018-09-17T07:27:59.552Z,23.07
2018-09-17T07:30:28.124Z,23.22
2018-09-17T07:32:56.675Z,23.38
2018-09-17T07:35:25.352Z,23.71
2018-09-17T07:37:53.920Z,24.06
2018-09-17T07:40:23.194Z,24.20
2018-09-17T07:42:51.789Z,24.48
2018-09-17T07:45:20.349Z,24.93
2018-09-17T07:47:48.975Z,25.30
2018-09-17T07:50:17.946Z,25.58
2018-09-17T07:52:46.509Z,25.82
2018-09-17T07:55:15.084Z,25.87
2018-09-17T07:57:43.711Z,25.89
2018-09-17T08:00:12.254Z,25.89
2018-09-17T08:02:40.819Z,25.99
2018-09-17T08:05:09.489Z,26.16
2018-09-17T08:07:38.062Z,26.11
2018-09-17T08:10:06.667Z,26.39
2018-09-17T08:12:35.251Z,26.56
2018-09-17T08:15:03.887Z,26.99
2018-09-17T08:17:32.439Z,26.96
2018-09-17T08:20:01.050Z,26.97
2018-09-17T08:22:29.591Z,27.11
2018-09-17T08:24:58.143Z,27.40
2018-09-17T08:27:26.796Z,27.55
2018-09-17T08:29:55.331Z,27.49
2018-09-17T08:32:23.884Z,28.11
2018-09-17T08:34:52.686Z,28.22
2018-09-17T08:37:21.227Z,28.59
2018-09-17T08:39:49.767Z,28.77
2018-09-17T08:42:18.411Z,28.88
2018-09-17T08:44:47.024Z,29.01
2018-09-17T08:47:15.593Z,29.22
2018-09-17T08:49:44.244Z,29.56
2018-09-17T08:52:12.840Z,29.61
2018-09-17T08:54:46.978Z,29.43
2018-09-17T08:57:20.575Z,29.75
2018-09-17T08:59:54.415Z,29.73
2018-09-17T09:02:28.300Z,29.40
2018-09-17T09:05:01.041Z,29.11
2018-09-17T09:07:31.506Z,28.59
2018-09-17T09:10:05.391Z,29.65
2018-09-17T09:12:41.598Z,30.11
2018-09-17T09:15:15.400Z,30.36
2018-09-17T09:17:43.940Z,30.70
2018-09-17T09:20:12.479Z,30.62
2018-09-17T09:22:41.055Z,30.72
2018-09-17T09:25:09.608Z,30.84
2018-09-17T09:27:38.143Z,30.00
2018-09-17T09:30:06.828Z,30.66
2018-09-17T09:32:35.387Z,31.24
2018-09-17T09:35:03.956Z,31.29
2018-09-17T09:37:32.668Z,31.86
2018-09-17T09:40:01.222Z,32.18
2018-09-17T09:42:29.764Z,32.20
2018-09-17T09:44:58.791Z,31.34
2018-09-17T09:47:27.344Z,31.40
2018-09-17T09:49:55.887Z,31.55
2018-09-17T09:52:24.560Z,32.50
2018-09-17T09:54:53.111Z,33.26
2018-09-17T09:57:21.663Z,34.09
2018-09-17T09:59:50.231Z,34.26
2018-09-17T10:02:23.891Z,34.51
2018-09-17T10:04:52.627Z,34.31
2018-09-17T10:07:21.204Z,34.48
2018-09-17T10:09:54.984Z,34.77
2018-09-17T10:12:28.560Z,34.64
2018-09-17T10:15:02.306Z,35.24
2018-09-17T10:17:36.094Z,35.44
2018-09-17T10:20:05.174Z,35.72
2018-09-17T10:22:33.730Z,36.07
2018-09-17T10:25:02.310Z,36.70
2018-09-17T10:27:31.000Z,36.69
2018-09-17T10:29:59.563Z,36.28
2018-09-17T10:32:28.143Z,36.51
2018-09-17T10:34:56.816Z,35.55
2018-09-17T10:37:25.484Z,34.99
2018-09-17T10:39:54.215Z,35.17
2018-09-17T10:42:22.878Z,35.76
2018-09-17T10:44:51.427Z,35.70
2018-09-17T10:47:19.991Z,35.55
2018-09-17T10:49:48.601Z,35.66
2018-09-17T10:52:17.155Z,35.37
2018-09-17T10:54:45.703Z,34.54
2018-09-17T10:57:14.269Z,34.91
2018-09-17T10:59:42.836Z,34.85
2018-09-17T11:02:11.395Z,34.46
2018-09-17T11:04:40.656Z,33.63
2018-09-17T11:07:09.239Z,32.84
2018-09-17T11:09:37.792Z,32.48
2018-09-17T11:12:06.423Z,31.96
2018-09-17T11:14:35.181Z,32.10
2018-09-17T11:17:03.727Z,33.09
2018-09-17T11:19:32.422Z,34.32
2018-09-17T11:22:00.969Z,35.52
2018-09-17T11:24:29.535Z,37.24
2018-09-17T11:26:58.166Z,39.10
2018-09-17T11:29:27.139Z,39.98
2018-09-17T11:31:56.095Z,41.31
2018-09-17T11:34:24.814Z,42.38
2018-09-17T11:36:53.355Z,41.36
2018-09-17T11:39:21.899Z,43.44
2018-09-17T11:41:50.694Z,44.18
2018-09-17T11:44:19.256Z,43.75
2018-09-17T11:46:47.800Z,44.45
2018-09-17T11:49:16.521Z,44.00
2018-09-17T11:51:45.175Z,44.60
2018-09-17T11:54:13.843Z,41.35
2018-09-17T11:56:42.423Z,43.98
2018-09-17T11:59:10.975Z,45.09
2018-09-17T12:01:45.505Z,43.34
2018-09-17T12:04:15.631Z,40.30
2018-09-17T12:06:49.455Z,37.84
2018-09-17T12:09:18.065Z,35.98
2018-09-17T12:11:46.936Z,34.45
2018-09-17T12:14:15.743Z,33.35
2018-09-17T12:16:44.280Z,32.25
2018-09-17T12:19:12.835Z,31.62
2018-09-17T12:21:41.523Z,31.11
2018-09-17T12:24:10.076Z,30.70
2018-09-17T12:26:38.626Z,30.27
2018-09-17T12:29:07.183Z,29.75
2018-09-17T12:31:35.948Z,29.79
2018-09-17T12:34:04.515Z,29.42
2018-09-17T12:36:33.604Z,29.21
2018-09-17T12:39:02.180Z,29.50
2018-09-17T12:41:30.758Z,29.72
2018-09-17T12:43:59.369Z,29.80
2018-09-17T12:46:27.913Z,29.83
2018-09-17T12:48:56.483Z,29.59
2018-09-17T12:51:25.307Z,29.21
2018-09-17T12:53:53.920Z,29.25
2018-09-17T12:56:22.484Z,29.46
2018-09-17T12:58:51.279Z,29.61
2018-09-17T13:01:20.260Z,29.68
2018-09-17T13:03:49.285Z,29.60
2018-09-17T13:06:17.967Z,29.59
2018-09-17T13:08:46.542Z,29.64
2018-09-17T13:11:15.090Z,29.75
2018-09-17T13:13:43.667Z,29.74
2018-09-17T13:16:12.211Z,29.83
2018-09-17T13:18:40.784Z,29.75
2018-09-17T13:21:09.465Z,29.72
2018-09-17T13:23:38.010Z,29.73
2018-09-17T13:26:06.584Z,29.73
2018-09-17T13:28:35.180Z,29.32
2018-09-17T13:31:03.723Z,29.25
2018-09-17T13:33:32.284Z,29.23
2018-09-17T13:36:00.868Z,29.03
2018-09-17T13:38:30.315Z,28.98
2018-09-17T13:40:58.864Z,29.02
2018-09-17T13:43:27.448Z,29.02
2018-09-17T13:45:56.014Z,29.02
2018-09-17T13:48:24.564Z,29.07
2018-09-17T13:50:53.139Z,29.10
2018-09-17T13:53:21.722Z,29.12
2018-09-17T13:55:50.258Z,29.04
2018-09-17T13:58:18.836Z,29.11
2018-09-17T14:00:47.395Z,28.96
2018-09-17T14:03:15.959Z,28.93
2018-09-17T14:05:44.625Z,28.95
2018-09-17T14:08:13.184Z,29.08
2018-09-17T14:10:41.763Z,29.15
2018-09-17T14:13:10.372Z,29.08
2018-09-17T14:15:39.007Z,29.12
2018-09-17T14:18:07.717Z,29.06
2018-09-17T14:20:36.300Z,29.03
2018-09-17T14:23:04.885Z,29.04
2018-09-17T14:25:33.423Z,28.92
2018-09-17T14:28:02.088Z,28.90
2018-09-17T14:30:30.659Z,28.81
2018-09-17T14:33:04.518Z,28.78
2018-09-17T14:35:33.234Z,28.81
2018-09-17T14:38:01.712Z,28.62
2018-09-17T14:40:30.756Z,28.45
2018-09-17T14:42:59.313Z,28.28
2018-09-17T14:45:27.885Z,28.21
2018-09-17T14:47:56.916Z,28.16
2018-09-17T14:50:25.543Z,28.25
2018-09-17T14:52:54.076Z,28.30
2018-09-17T14:55:22.847Z,28.28
2018-09-17T14:57:51.386Z,28.37
2018-09-17T15:00:19.959Z,28.34
2018-09-17T15:02:48.811Z,28.38
2018-09-17T15:05:17.390Z,28.33
2018-09-17T15:07:46.148Z,28.40
2018-09-17T15:10:15.089Z,28.40
2018-09-17T15:12:43.563Z,28.32
2018-09-17T15:15:12.150Z,28.24
2018-09-17T15:17:40.958Z,28.13
2018-09-17T15:20:09.552Z,28.01
2018-09-17T15:22:38.129Z,27.89
2018-09-17T15:25:06.700Z,27.84
2018-09-17T15:27:35.240Z,27.97
2018-09-17T15:30:03.828Z,27.96
2018-09-17T15:32:32.803Z,27.92
2018-09-17T15:35:01.387Z,27.94
2018-09-17T15:37:30.097Z,27.94
2018-09-17T15:39:58.771Z,28.04
2018-09-17T15:42:27.406Z,28.07
2018-09-17T15:44:56.243Z,28.05
2018-09-17T15:47:24.903Z,28.05
2018-09-17T15:49:53.893Z,28.02
2018-09-17T15:52:22.481Z,28.02
2018-09-17T15:54:51.103Z,27.92
2018-09-17T15:57:19.660Z,27.86
2018-09-17T15:59:48.217Z,27.82
2018-09-17T16:02:16.852Z,27.85
2018-09-17T16:04:45.431Z,27.82
2018-09-17T16:07:13.992Z,27.79
2018-09-17T16:09:42.934Z,27.81
2018-09-17T16:12:11.480Z,27.75
2018-09-17T16:14:40.049Z,27.73
2018-09-17T16:17:08.702Z,27.63
2018-09-17T16:19:37.612Z,27.60
2018-09-17T16:22:06.227Z,27.58
2018-09-17T16:24:34.903Z,27.54
2018-09-17T16:27:03.485Z,27.57
2018-09-17T16:29:32.047Z,27.61
2018-09-17T16:32:00.724Z,27.58
2018-09-17T16:34:29.276Z,27.51
2018-09-17T16:36:57.874Z,27.55
2018-09-17T16:39:26.983Z,27.47
2018-09-17T16:41:55.555Z,27.47
2018-09-17T16:44:24.123Z,27.38
2018-09-17T16:46:52.855Z,27.38
2018-09-17T16:49:21.420Z,27.35
2018-09-17T16:51:50.748Z,27.33
2018-09-17T16:54:19.379Z,27.16
2018-09-17T16:56:47.966Z,27.12
2018-09-17T16:59:16.545Z,27.07
2018-09-17T17:01:45.135Z,27.01
2018-09-17T17:04:13.667Z,27.02
2018-09-17T17:06:42.268Z,26.99
2018-09-17T17:09:11.918Z,26.91
2018-09-17T17:11:40.519Z,26.85
2018-09-17T17:14:09.080Z,26.80
2018-09-17T17:16:37.714Z,26.74
2018-09-17T17:19:06.382Z,26.70
2018-09-17T17:21:34.911Z,26.67
2018-09-17T17:24:03.527Z,26.57
2018-09-17T17:26:32.203Z,26.42
2018-09-17T17:29:00.820Z,26.43
2018-09-17T17:31:29.501Z,26.30
2018-09-17T17:33:58.141Z,26.27
2018-09-17T17:36:26.759Z,26.17
2018-09-17T17:38:55.414Z,26.04
2018-09-17T17:41:24.127Z,26.03
2018-09-17T17:43:52.683Z,25.97
2018-09-17T17:46:21.332Z,25.86
2018-09-17T17:48:49.899Z,25.76
2018-09-17T17:51:18.447Z,25.67
2018-09-17T17:53:47.120Z,25.59
2018-09-17T17:56:15.690Z,25.51
2018-09-17T17:58:44.239Z,25.43
2018-09-17T18:01:13.059Z,25.38
2018-09-17T18:03:41.551Z,25.27
2018-09-17T18:06:10.119Z,25.14
2018-09-17T18:08:39.140Z,25.08
2018-09-17T18:11:08.179Z,25.05
2018-09-17T18:13:37.332Z,24.94
2018-09-17T18:16:06.072Z,24.94
2018-09-17T18:18:34.619Z,24.88
2018-09-17T18:21:03.223Z,24.84
2018-09-17T18:23:31.863Z,24.71
2018-09-17T18:26:00.408Z,24.76
2018-09-17T18:28:29.020Z,24.68
2018-09-17T18:30:57.627Z,24.60
2018-09-17T18:33:26.168Z,24.56
2018-09-17T18:35:54.789Z,24.58
2018-09-17T18:38:23.935Z,24.61
2018-09-17T18:40:52.519Z,24.54
2018-09-17T18:43:21.088Z,24.44
2018-09-17T18:45:49.872Z,24.37
2018-09-17T18:48:18.538Z,24.30
2018-09-17T18:50:47.039Z,24.13
2018-09-17T18:53:16.015Z,24.03
2018-09-17T18:55:44.575Z,23.94
2018-09-17T18:58:13.127Z,23.91
2018-09-17T19:00:41.700Z,23.77
2018-09-17T19:03:10.275Z,23.66
2018-09-17T19:05:38.868Z,23.54
2018-09-17T19:08:07.564Z,23.47
2018-09-17T19:10:36.227Z,23.40
2018-09-17T19:13:04.820Z,23.38
2018-09-17T19:16:05.164Z,23.29
2018-09-17T19:18:33.744Z,23.20
2018-09-17T19:21:02.552Z,23.15
2018-09-17T19:23:36.019Z,23.05
2018-09-17T19:26:04.593Z,23.04
2018-09-17T19:28:38.421Z,23.03
2018-09-17T19:31:06.980Z,23.02
2018-09-17T19:33:35.535Z,23.03
2018-09-17T19:36:04.230Z,23.00
2018-09-17T19:38:38.139Z,23.03
2018-09-17T19:41:07.115Z,22.99
2018-09-17T19:43:35.743Z,22.94
2018-09-17T19:46:09.584Z,22.86
2018-09-17T19:48:38.107Z,22.77
2018-09-17T19:51:11.941Z,22.70
2018-09-17T19:53:40.513Z,22.66
2018-09-17T19:56:09.134Z,22.52
2018-09-17T19:58:42.808Z,22.53
2018-09-17T20:01:11.371Z,22.50
2018-09-17T20:03:39.946Z,22.42
2018-09-17T20:06:13.914Z,22.35
2018-09-17T20:08:42.483Z,22.31
2018-09-17T20:11:11.079Z,22.28
2018-09-17T20:13:40.087Z,22.21
2018-09-17T20:16:08.660Z,22.19
2018-09-17T20:18:37.251Z,22.14
2018-09-17T20:21:06.292Z,22.11
2018-09-17T20:23:34.841Z,22.06
2018-09-17T20:26:03.401Z,21.97
2018-09-17T20:28:31.980Z,21.94
2018-09-17T20:31:00.547Z,21.84
2018-09-17T20:33:31.968Z,21.75
2018-09-17T20:36:00.684Z,21.71
2018-09-17T20:38:29.863Z,21.70
2018-09-17T20:40:58.464Z,21.67
2018-09-17T20:43:27.007Z,21.59
2018-09-17T20:45:55.924Z,21.50
2018-09-17T20:48:24.500Z,21.41
2018-09-17T20:50:53.092Z,21.34
2018-09-17T20:53:21.696Z,21.26
2018-09-17T20:55:50.599Z,21.19
2018-09-17T20:58:19.267Z,21.14
2018-09-17T21:00:47.837Z,21.08
2018-09-17T21:03:16.506Z,21.03
2018-09-17T21:05:45.070Z,20.95
2018-09-17T21:08:13.612Z,20.87
2018-09-17T21:10:42.256Z,20.83
2018-09-17T21:13:10.821Z,20.76
2018-09-17T21:15:39.495Z,20.76
2018-09-17T21:18:08.183Z,20.70
2018-09-17T21:20:36.735Z,20.62
2018-09-17T21:23:05.300Z,20.57
2018-09-17T21:25:34.855Z,20.52
2018-09-17T21:28:03.484Z,20.52
2018-09-17T21:30:32.043Z,20.47
2018-09-17T21:33:00.644Z,20.40
2018-09-17T21:35:29.199Z,20.37
2018-09-17T21:37:58.167Z,20.26
2018-09-17T21:40:26.853Z,20.14
2018-09-17T21:42:55.984Z,20.08
2018-09-17T21:45:24.496Z,20.06
2018-09-17T21:47:53.171Z,20.04
2018-09-17T21:50:23.139Z,20.00
2018-09-17T21:52:51.788Z,19.96
2018-09-17T21:55:20.359Z,19.93
2018-09-17T21:57:48.920Z,19.89
2018-09-17T22:00:17.499Z,19.87
2018-09-17T22:02:46.091Z,19.92
2018-09-17T22:05:14.654Z,19.94
2018-09-17T22:07:43.400Z,19.89
2018-09-17T22:10:12.021Z,19.80
2018-09-17T22:12:40.616Z,19.77
2018-09-17T22:15:09.179Z,19.72
2018-09-17T22:17:37.861Z,19.66
2018-09-17T22:20:06.456Z,19.57
2018-09-17T22:22:35.010Z,19.47
2018-09-17T22:25:03.579Z,19.37
2018-09-17T22:27:32.152Z,19.28
2018-09-17T22:30:00.708Z,19.16
2018-09-17T22:32:29.344Z,19.07
2018-09-17T22:34:57.891Z,19.07
2018-09-17T22:37:26.467Z,19.07
2018-09-17T22:39:55.064Z,19.05
2018-09-17T22:42:23.656Z,19.00
2018-09-17T22:44:52.239Z,18.91
2018-09-17T22:47:20.887Z,18.80
2018-09-17T22:49:49.498Z,18.71
2018-09-17T22:52:18.448Z,18.68
2018-09-17T22:54:47.064Z,18.63
2018-09-17T22:57:15.635Z,18.61
2018-09-17T22:59:44.216Z,18.58
2018-09-17T23:02:12.892Z,18.61
2018-09-17T23:04:41.451Z,18.57
2018-09-17T23:07:10.007Z,18.54
2018-09-17T23:09:39.354Z,18.51
2018-09-17T23:12:07.943Z,18.46
2018-09-17T23:14:36.531Z,18.41
2018-09-17T23:17:05.316Z,18.39
2018-09-17T23:19:33.872Z,18.35
2018-09-17T23:22:02.447Z,18.29
2018-09-17T23:24:31.137Z,18.26
2018-09-17T23:26:59.687Z,18.27
2018-09-17T23:29:28.242Z,18.25
2018-09-17T23:31:56.940Z,18.24
2018-09-17T23:34:25.487Z,18.18
2018-09-17T23:36:54.044Z,18.16
2018-09-17T23:39:22.635Z,18.20
2018-09-17T23:41:52.087Z,18.20
2018-09-17T23:44:20.643Z,18.19
2018-09-17T23:46:49.316Z,18.15
2018-09-17T23:49:18.272Z,18.16
2018-09-17T23:51:46.831Z,18.12
2018-09-17T23:54:15.792Z,18.06
2018-09-17T23:56:44.347Z,18.02
2018-09-17T23:59:12.934Z,18.01
